Auburn, NH

4:28 AM EDT on October 20, 2014 (GMT -0400)
Lawrence Municipal | Change Station
CLOSE
Current Station
Airport
Location: Lawrence,
Elevation: 148 ft
Nearby Weather Stations
Active Advisory: Freeze Warning

Elev 148 ft 42.72 °N, 71.12 °W | Updated 34 minutes ago

Partly Cloudy
Partly Cloudy
37 °F
Feels Like 33 °F
N
5
Wind Variable Wind from WNW

Today
High -- | Low -- °F
--% Chance of Precip.
Yesterday
High -- | Low -- °F
Precip. -- in
7:04 AM 5:54 PM
Waning Crescent, 12% visible
Pressure 30.01 in
Visibility 10.0 miles
Clouds Clear
Windchill 33 °F
Dew Point 26 °F
Humidity 65%
Rainfall 0.00 in
Snow Depth Not available.
UV 0 out of 12
Pollen .80 out of 12
Ozone Good
PM2.5 Good
Flu Activity Local Activity
METAR KLWM 200754Z AUTO 29004KT 10SM CLR 03/M03 A3001 RMK AO2 SLP162 T00281033

More Conditions Fewer Conditions

Pressure 30.01 in
Visibility 10.0 miles
Clouds Clear
Windchill 33 °F
Dew Point 26 °F
Humidity 65%
Rainfall 0.00 in
Snow Depth Not available.
UV 0 out of 12
Pollen .80 out of 12
Ozone Good
PM2.5 Good
Flu Activity Local Activity
METAR KLWM 200754Z AUTO 29004KT 10SM CLR 03/M03 A3001 RMK AO2 SLP162 T00281033

More Conditions Fewer Conditions

10-Day Weather Forecast

Almanac

Astronomy

Oct. 20, 2014 Rise Set
Actual Time 7:04 AM EDT 5:54 PM EDT
Civil Twilight 6:36 AM EDT 6:23 PM EDT
Nautical Twilight 6:03 AM EDT 6:56 PM EDT
Astronomical Twilight 5:30 AM EDT 7:29 PM EDT
Moon 3:45 AM EDT 4:19 PM EDT
Length of Visible Light 11h 47m
Length of Day
10h 49m
Waning Crescent, 12% of the Moon is Illuminated
Today
Waning Crescent
Oct 23
New
Oct 30
First Quarter
Nov 6
Full
Nov 14
Last Quarter

Today's Extremes

State Highs State Lows

Community

WunderPhotos

Upload Photos

1,763,316 photos uploaded!

Nearby

Air Quality

  Air Quality AQ Index Pollutant
Yesterday Good
OZONE
Yesterday Good
PM2.5
Current Good
OZONE
Current Good
PM2.5
Monday Good
PM2.5
Monday Good
OZONE

Snow Depth

Station Depth Elevation
No new snow has been reported.

Earthquake Activity

City Distance Mag. Time & Date
No recent earthquake activity has been reported nearby.
Minimum magnitude displayed is 2.5.

Coastal Water Temperatures

Place Temperature
Wells, ME 50.0 °F
Portland, ME 55.9 °F

Nearby Weather Stations